createdAt,value
2022-10-15T00:01:08.002Z,100929.75
2022-10-15T00:03:37.903Z,100927.16
2022-10-15T00:06:07.504Z,100925.34
2022-10-15T00:08:37.204Z,100920.22
2022-10-15T00:11:09.852Z,100920.09
2022-10-15T00:13:38.651Z,100915.59
2022-10-15T00:16:09.488Z,100920.72
2022-10-15T00:18:37.480Z,100914.66
2022-10-15T00:21:08.804Z,100918.13
2022-10-15T00:23:39.055Z,100910.59
2022-10-15T00:26:09.133Z,100908.81
2022-10-15T00:28:37.609Z,100912.13
2022-10-15T00:31:08.209Z,100915.50
2022-10-15T00:33:36.695Z,100904.16
2022-10-15T00:36:06.962Z,100898.09
2022-10-15T00:38:35.130Z,100904.38
2022-10-15T00:41:06.242Z,100908.56
2022-10-15T00:43:43.965Z,100907.75
2022-10-15T00:46:23.808Z,100895.56
2022-10-15T00:48:55.769Z,100887.97
2022-10-15T00:51:27.328Z,100889.22
2022-10-15T00:53:55.212Z,100891.44
2022-10-15T00:56:28.655Z,100886.63
2022-10-15T00:58:57.344Z,100885.06
2022-10-15T01:01:26.388Z,100887.06
2022-10-15T01:03:56.755Z,100881.94
2022-10-15T01:06:25.851Z,100882.97
2022-10-15T01:08:53.938Z,100872.38
2022-10-15T01:11:39.916Z,100882.03
2022-10-15T01:14:19.559Z,100874.31
2022-10-15T01:16:51.834Z,100872.72
2022-10-15T01:19:32.969Z,100870.09
2022-10-15T01:22:06.831Z,100867.47
2022-10-15T01:24:59.816Z,100865.06
2022-10-15T01:27:36.327Z,100865.19
2022-10-15T01:30:26.998Z,100860.06
2022-10-15T01:33:04.211Z,100861.97
2022-10-15T01:35:42.992Z,100859.44
2022-10-15T01:38:37.038Z,100855.13
2022-10-15T01:41:11.466Z,100857.25
2022-10-15T01:43:46.096Z,100863.22
2022-10-15T01:46:20.700Z,100853.28
2022-10-15T01:48:50.746Z,100857.47
2022-10-15T01:51:20.615Z,100842.72
2022-10-15T01:53:49.640Z,100851.28
2022-10-15T01:56:23.587Z,100837.50
2022-10-15T01:58:55.680Z,100834.97
2022-10-15T02:01:25.001Z,100825.75
2022-10-15T02:03:54.733Z,100821.56
2022-10-15T02:06:31.101Z,100817.31
2022-10-15T02:09:22.402Z,100829.31
2022-10-15T02:12:01.294Z,100831.94
2022-10-15T02:14:34.856Z,100842.28
2022-10-15T02:17:09.605Z,100840.75
2022-10-15T02:19:44.742Z,100839.91
2022-10-15T02:22:16.949Z,100837.50
2022-10-15T02:24:54.712Z,100833.22
2022-10-15T02:27:25.303Z,100825.25
2022-10-15T02:29:55.125Z,100828.78
2022-10-15T02:32:26.740Z,100829.63
2022-10-15T02:34:56.251Z,100823.56
2022-10-15T02:37:27.019Z,100823.63
2022-10-15T02:39:55.215Z,100824.59
2022-10-15T02:42:23.678Z,100821.91
2022-10-15T02:44:51.807Z,100822.91
2022-10-15T02:47:19.746Z,100820.31
2022-10-15T02:49:49.182Z,100815.88
2022-10-15T02:52:17.067Z,100809.84
2022-10-15T02:54:44.939Z,100810.56
2022-10-15T02:57:12.805Z,100806.28
2022-10-15T02:59:40.691Z,100800.09
2022-10-15T03:02:08.550Z,100794.78
2022-10-15T03:04:36.406Z,100791.34
2022-10-15T03:07:05.641Z,100788.63
2022-10-15T03:09:33.485Z,100781.69
2022-10-15T03:12:01.310Z,100778.28
2022-10-15T03:16:57.938Z,100773.03
2022-10-15T03:19:26.256Z,100772.25
2022-10-15T03:21:54.163Z,100769.66
2022-10-15T03:24:23.388Z,100767.88
2022-10-15T03:26:51.223Z,100764.41
2022-10-15T03:29:19.065Z,100764.34
2022-10-15T03:31:47.200Z,100763.47
2022-10-15T03:34:15.041Z,100765.19
2022-10-15T03:36:42.940Z,100768.81
2022-10-15T03:39:12.208Z,100764.41
2022-10-15T03:41:41.517Z,100756.56
2022-10-15T03:44:10.123Z,100763.19
2022-10-15T03:46:37.956Z,100753.66
2022-10-15T03:49:06.408Z,100758.78
2022-10-15T03:51:34.253Z,100755.22
2022-10-15T03:54:02.182Z,100749.06
2022-10-15T03:56:30.052Z,100749.88
2022-10-15T03:58:59.314Z,100750.63
2022-10-15T04:01:27.436Z,100749.78
2022-10-15T04:03:55.826Z,100744.53
2022-10-15T04:06:23.690Z,100744.53
2022-10-15T04:11:19.394Z,100755.75
2022-10-15T04:13:49.673Z,100754.78
2022-10-15T04:16:19.016Z,100744.22
2022-10-15T04:18:46.994Z,100745.91
2022-10-15T04:21:14.904Z,100742.22
2022-10-15T04:23:45.166Z,100737.94
2022-10-15T04:26:13.056Z,100733.53
2022-10-15T04:28:40.970Z,100731.66
2022-10-15T04:31:09.399Z,100723.91
2022-10-15T04:33:38.735Z,100731.53
2022-10-15T04:36:09.071Z,100730.59
2022-10-15T04:38:36.780Z,100722.13
2022-10-15T04:41:06.809Z,100723.81
2022-10-15T04:43:35.095Z,100712.28
2022-10-15T04:46:06.485Z,100709.66
2022-10-15T04:48:37.678Z,100710.38
2022-10-15T04:51:10.851Z,100703.47
2022-10-15T04:53:38.479Z,100702.97
2022-10-15T04:56:08.779Z,100702.03
2022-10-15T04:58:37.880Z,100701.22
2022-10-15T05:01:08.104Z,100701.91
2022-10-15T05:03:38.605Z,100695.13
2022-10-15T05:06:12.689Z,100693.34
2022-10-15T05:08:43.444Z,100699.28
2022-10-15T05:11:13.970Z,100691.44
2022-10-15T05:13:41.968Z,100698.38
2022-10-15T05:16:11.220Z,100697.41
2022-10-15T05:18:39.552Z,100693.00
2022-10-15T05:21:07.931Z,100680.53
2022-10-15T05:23:37.902Z,100689.13
2022-10-15T05:26:08.268Z,100688.16
2022-10-15T05:28:36.407Z,100690.91
2022-10-15T05:31:09.051Z,100681.97
2022-10-15T05:33:37.142Z,100681.03
2022-10-15T05:36:12.795Z,100687.94
2022-10-15T05:38:42.357Z,100676.50
2022-10-15T05:41:10.247Z,100669.50
2022-10-15T05:43:40.497Z,100676.41
2022-10-15T05:46:09.918Z,100666.78
2022-10-15T05:48:37.773Z,100667.63
2022-10-15T05:51:08.502Z,100666.66
2022-10-15T05:53:36.619Z,100664.91
2022-10-15T05:56:06.502Z,100673.44
2022-10-15T05:58:37.372Z,100656.19
2022-10-15T06:01:07.990Z,100659.66
2022-10-15T06:03:36.105Z,100662.06
2022-10-15T06:06:04.071Z,100657.53
2022-10-15T06:08:32.479Z,100656.72
2022-10-15T06:11:08.463Z,100653.97
2022-10-15T06:13:39.076Z,100652.06
2022-10-15T06:16:07.642Z,100642.22
2022-10-15T06:18:36.107Z,100643.88
2022-10-15T06:21:04.152Z,100646.25
2022-10-15T06:23:32.018Z,100639.13
2022-10-15T06:26:03.606Z,100631.06
2022-10-15T06:28:33.509Z,100640.22
2022-10-15T06:31:03.771Z,100634.75
2022-10-15T06:33:32.594Z,100640.63
2022-10-15T06:36:05.679Z,100631.56
2022-10-15T06:38:36.187Z,100638.22
2022-10-15T06:41:06.019Z,100635.38
2022-10-15T06:43:35.711Z,100639.47
2022-10-15T06:46:04.589Z,100630.66
2022-10-15T06:48:32.801Z,100624.22
2022-10-15T06:51:01.441Z,100624.94
2022-10-15T06:53:30.595Z,100629.84
2022-10-15T06:55:59.289Z,100628.63
2022-10-15T06:58:28.256Z,100632.59
2022-10-15T07:01:02.564Z,100629.63
2022-10-15T07:03:30.493Z,100631.75
2022-10-15T07:06:03.543Z,100616.50
2022-10-15T07:08:31.426Z,100623.06
2022-10-15T07:10:59.588Z,100626.28
2022-10-15T07:13:27.472Z,100627.69
2022-10-15T07:15:56.104Z,100623.06
2022-10-15T07:18:25.507Z,100614.84
2022-10-15T07:20:53.349Z,100618.19
2022-10-15T07:23:24.174Z,100619.72
2022-10-15T07:25:55.468Z,100620.56
2022-10-15T07:28:23.577Z,100621.13
2022-10-15T07:30:51.539Z,100621.63
2022-10-15T07:33:19.618Z,100624.03
2022-10-15T07:35:48.851Z,100622.84
2022-10-15T07:38:17.992Z,100613.75
2022-10-15T07:40:48.948Z,100610.66
2022-10-15T07:43:17.072Z,100613.88
2022-10-15T07:45:49.846Z,100611.47
2022-10-15T07:48:17.888Z,100614.53
2022-10-15T07:50:45.797Z,100611.31
2022-10-15T07:53:18.059Z,100607.75
2022-10-15T07:55:48.551Z,100607.88
2022-10-15T07:58:16.600Z,100608.56
2022-10-15T08:00:44.884Z,100610.25
2022-10-15T08:03:12.771Z,100597.69
2022-10-15T08:05:40.613Z,100604.63
2022-10-15T08:08:08.482Z,100602.31
2022-10-15T08:10:38.396Z,100598.22
2022-10-15T08:13:06.706Z,100599.28
2022-10-15T08:15:35.058Z,100610.34
2022-10-15T08:18:02.894Z,100608.44
2022-10-15T08:20:30.854Z,100609.72
2022-10-15T08:22:58.994Z,100608.41
2022-10-15T08:25:26.877Z,100605.28
2022-10-15T08:27:56.522Z,100603.06
2022-10-15T08:30:24.502Z,100599.09
2022-10-15T08:32:52.435Z,100606.59
2022-10-15T08:35:20.333Z,100603.97
2022-10-15T08:37:48.171Z,100611.84
2022-10-15T08:40:17.141Z,100611.59
2022-10-15T08:42:47.258Z,100608.47
2022-10-15T08:45:19.644Z,100609.75
2022-10-15T08:47:51.881Z,100603.47
2022-10-15T08:50:29.129Z,100606.09
2022-10-15T08:52:59.639Z,100602.09
2022-10-15T08:55:30.849Z,100607.81
2022-10-15T08:58:03.295Z,100606.88
2022-10-15T09:00:41.520Z,100599.28
2022-10-15T09:03:25.413Z,100591.25
2022-10-15T09:06:02.921Z,100590.59
2022-10-15T09:08:35.344Z,100605.84
2022-10-15T09:11:09.448Z,100599.06
2022-10-15T09:13:41.597Z,100599.91
2022-10-15T09:16:16.276Z,100603.91
2022-10-15T09:18:47.943Z,100593.38
2022-10-15T09:21:16.920Z,100592.41
2022-10-15T09:23:45.644Z,100593.81
2022-10-15T09:26:26.543Z,100593.53
2022-10-15T09:29:00.970Z,100596.03
2022-10-15T09:31:40.368Z,100597.44
2022-10-15T09:34:16.029Z,100601.19
2022-10-15T09:36:51.017Z,100598.69
2022-10-15T09:39:35.827Z,100594.13
2022-10-15T09:42:17.813Z,100594.81
2022-10-15T09:44:48.102Z,100598.28
2022-10-15T09:47:19.248Z,100592.44
2022-10-15T09:49:47.107Z,100603.97
2022-10-15T09:52:22.956Z,100610.19
2022-10-15T09:54:58.722Z,100610.34
2022-10-15T09:57:27.707Z,100602.97
2022-10-15T09:59:57.479Z,100603.56
2022-10-15T10:02:27.539Z,100600.94
2022-10-15T10:04:56.074Z,100595.78
2022-10-15T10:07:33.163Z,100599.41
2022-10-15T10:10:05.115Z,100601.63
2022-10-15T10:12:36.185Z,100593.59
2022-10-15T10:15:09.793Z,100592.47
2022-10-15T10:17:39.186Z,100594.44
2022-10-15T10:20:19.262Z,100591.53
2022-10-15T10:22:51.277Z,100593.63
2022-10-15T10:25:35.848Z,100595.00
2022-10-15T10:28:17.307Z,100601.66
2022-10-15T10:30:54.701Z,100588.06
2022-10-15T10:33:28.729Z,100592.41
2022-10-15T10:35:57.816Z,100581.31
2022-10-15T10:38:27.823Z,100591.44
2022-10-15T10:40:59.270Z,100591.28
2022-10-15T10:43:28.799Z,100585.06
2022-10-15T10:45:59.062Z,100584.78
2022-10-15T10:48:30.891Z,100577.84
2022-10-15T10:51:09.363Z,100586.00
2022-10-15T10:53:47.575Z,100582.16
2022-10-15T10:56:15.874Z,100574.81
2022-10-15T10:58:43.956Z,100576.31
2022-10-15T11:01:13.966Z,100575.47
2022-10-15T11:03:49.379Z,100580.06
2022-10-15T11:06:27.526Z,100583.91
2022-10-15T11:09:08.163Z,100588.38
2022-10-15T11:11:46.561Z,100584.19
2022-10-15T11:14:24.769Z,100579.53
2022-10-15T11:17:01.334Z,100585.47
2022-10-15T11:22:43.446Z,100586.72
2022-10-15T11:25:22.208Z,100574.53
2022-10-15T11:28:01.318Z,100577.03
2022-10-15T11:30:40.408Z,100572.84
2022-10-15T11:33:22.946Z,100568.28
2022-10-15T11:36:00.796Z,100570.06
2022-10-15T11:38:41.975Z,100573.53
2022-10-15T11:41:27.385Z,100572.44
2022-10-15T11:44:21.529Z,100559.53
2022-10-15T11:46:59.495Z,100567.28
2022-10-15T11:49:40.644Z,100568.41
2022-10-15T11:52:31.213Z,100571.63
2022-10-15T11:55:04.143Z,100578.00
2022-10-15T11:57:35.931Z,100575.22
2022-10-15T12:00:11.102Z,100583.13
2022-10-15T12:02:40.051Z,100579.66
2022-10-15T12:05:10.513Z,100574.25
2022-10-15T12:07:41.451Z,100569.41
2022-10-15T12:10:27.125Z,100576.19
2022-10-15T12:13:00.936Z,100582.56
2022-10-15T12:15:36.778Z,100577.84
2022-10-15T12:18:12.987Z,100583.41
2022-10-15T12:20:43.530Z,100571.97
2022-10-15T12:23:25.220Z,100579.06
2022-10-15T12:25:53.538Z,100578.91
2022-10-15T12:28:25.074Z,100574.50
2022-10-15T12:31:01.168Z,100577.94
2022-10-15T12:33:38.097Z,100578.22
2022-10-15T12:36:10.677Z,100565.31
2022-10-15T12:38:56.586Z,100571.56
2022-10-15T12:41:38.141Z,100562.84
2022-10-15T12:44:08.191Z,100565.47
2022-10-15T12:46:39.305Z,100557.69
2022-10-15T12:49:51.707Z,100558.97
2022-10-15T12:52:58.744Z,100565.19
2022-10-15T12:55:33.768Z,100562.13
2022-10-15T12:58:03.901Z,100557.72
2022-10-15T13:00:40.483Z,100553.44
2022-10-15T13:03:25.643Z,100552.03
2022-10-15T13:05:55.393Z,100552.56
2022-10-15T13:08:25.689Z,100542.44
2022-10-15T13:10:58.253Z,100549.66
2022-10-15T13:13:28.977Z,100546.31
2022-10-15T13:16:00.584Z,100556.28
2022-10-15T13:18:31.496Z,100552.13
2022-10-15T13:20:59.968Z,100549.38
2022-10-15T13:23:32.829Z,100548.25
2022-10-15T13:26:20.940Z,100554.22
2022-10-15T13:28:50.041Z,100545.34
2022-10-15T13:31:27.426Z,100547.03
2022-10-15T13:34:01.624Z,100541.91
2022-10-15T13:36:33.006Z,100552.28
2022-10-15T13:39:04.966Z,100557.69
2022-10-15T13:41:37.296Z,100555.34
2022-10-15T13:44:05.877Z,100554.34
2022-10-15T13:46:37.697Z,100558.09
2022-10-15T13:49:12.327Z,100563.38
2022-10-15T13:51:43.350Z,100560.88
2022-10-15T13:54:16.216Z,100562.53
2022-10-15T13:56:52.431Z,100562.66
2022-10-15T13:59:21.256Z,100570.69
2022-10-15T14:01:52.548Z,100569.03
2022-10-15T14:04:23.224Z,100565.56
2022-10-15T14:09:34.998Z,100571.22
2022-10-15T14:12:06.865Z,100571.22
2022-10-15T14:14:37.471Z,100563.59
2022-10-15T14:17:07.738Z,100566.94
2022-10-15T14:19:38.673Z,100574.97
2022-10-15T14:22:07.646Z,100574.13
2022-10-15T14:24:37.158Z,100576.91
2022-10-15T14:27:15.792Z,100582.16
2022-10-15T14:29:46.062Z,100572.63
2022-10-15T14:32:26.168Z,100578.00
2022-10-15T14:34:55.494Z,100581.72
2022-10-15T14:37:41.357Z,100584.34
2022-10-15T14:40:19.107Z,100587.81
2022-10-15T14:42:50.025Z,100585.31
2022-10-15T14:45:27.174Z,100588.09
2022-10-15T14:47:57.271Z,100585.59
2022-10-15T14:50:27.651Z,100591.00
2022-10-15T14:52:56.317Z,100596.66
2022-10-15T14:55:33.821Z,100599.16
2022-10-15T14:58:09.095Z,100594.59
2022-10-15T15:00:42.065Z,100591.97
2022-10-15T15:03:16.904Z,100595.56
2022-10-15T15:05:47.183Z,100595.69
2022-10-15T15:08:15.584Z,100596.78
2022-10-15T15:10:44.354Z,100599.28
2022-10-15T15:13:20.314Z,100597.75
2022-10-15T15:15:48.533Z,100595.13
2022-10-15T15:18:16.793Z,100589.88
2022-10-15T15:20:46.205Z,100589.03
2022-10-15T15:23:19.885Z,100592.63
2022-10-15T15:25:48.407Z,100591.09
2022-10-15T15:28:20.636Z,100592.19
2022-10-15T15:30:56.223Z,100593.16
2022-10-15T15:33:24.124Z,100593.88
2022-10-15T15:35:55.040Z,100594.13
2022-10-15T15:38:30.907Z,100595.19
2022-10-15T15:41:04.598Z,100592.44
2022-10-15T15:43:33.823Z,100601.19
2022-10-15T15:46:01.688Z,100603.94
2022-10-15T15:48:29.575Z,100604.78
2022-10-15T15:51:01.531Z,100610.31
2022-10-15T15:53:29.361Z,100609.47
2022-10-15T15:55:57.244Z,100603.22
2022-10-15T15:58:25.183Z,100605.03
2022-10-15T16:00:54.383Z,100598.22
2022-10-15T16:03:22.221Z,100599.91
2022-10-15T16:08:24.032Z,100588.94
2022-10-15T16:10:51.893Z,100595.31
2022-10-15T16:13:19.756Z,100599.72
2022-10-15T16:15:47.583Z,100602.63
2022-10-15T16:18:16.785Z,100603.59
2022-10-15T16:20:48.499Z,100605.50
2022-10-15T16:23:17.373Z,100608.41
2022-10-15T16:25:45.315Z,100605.50
2022-10-15T16:28:13.355Z,100608.13
2022-10-15T16:30:41.214Z,100610.06
2022-10-15T16:35:43.462Z,100620.44
2022-10-15T16:38:11.340Z,100619.75
2022-10-15T16:40:39.893Z,100618.06
2022-10-15T16:43:07.708Z,100613.53
2022-10-15T16:45:35.583Z,100613.66
2022-10-15T16:48:03.419Z,100623.34
2022-10-15T16:50:31.951Z,100625.28
2022-10-15T16:53:01.171Z,100622.91
2022-10-15T16:55:29.889Z,100627.31
2022-10-15T16:57:58.707Z,100625.78
2022-10-15T17:00:26.583Z,100629.13
2022-10-15T17:02:55.126Z,100636.31
2022-10-15T17:05:22.990Z,100636.19
2022-10-15T17:07:50.822Z,100630.22
2022-10-15T17:10:25.606Z,100626.78
2022-10-15T17:12:53.754Z,100632.03
2022-10-15T17:15:21.614Z,100637.50
2022-10-15T17:17:49.841Z,100633.44
2022-10-15T17:20:20.742Z,100637.91
2022-10-15T17:22:48.619Z,100634.41
2022-10-15T17:25:16.580Z,100629.16
2022-10-15T17:27:45.835Z,100629.28
2022-10-15T17:30:13.713Z,100633.44
2022-10-15T17:32:41.557Z,100635.28
2022-10-15T17:35:10.251Z,100626.78
2022-10-15T17:37:39.850Z,100632.91
2022-10-15T17:40:09.204Z,100629.44
2022-10-15T17:42:42.487Z,100628.44
2022-10-15T17:45:12.970Z,100636.34
2022-10-15T17:47:40.626Z,100641.03
2022-10-15T17:50:09.548Z,100649.72
2022-10-15T17:52:37.403Z,100645.19
2022-10-15T17:55:05.745Z,100640.78
2022-10-15T17:57:33.592Z,100652.94
2022-10-15T18:00:01.456Z,100647.69
2022-10-15T18:02:30.743Z,100640.66
2022-10-15T18:04:59.336Z,100645.78
2022-10-15T18:07:27.697Z,100643.03
2022-10-15T18:09:55.798Z,100646.59
2022-10-15T18:12:23.654Z,100642.91
2022-10-15T18:14:51.669Z,100646.34
2022-10-15T18:17:19.707Z,100652.56
2022-10-15T18:19:48.939Z,100648.16
2022-10-15T18:22:18.081Z,100638.72
2022-10-15T18:24:45.945Z,100656.03
2022-10-15T18:27:13.800Z,100646.47
2022-10-15T18:29:42.561Z,100647.44
2022-10-15T18:32:10.460Z,100640.41
2022-10-15T18:34:38.298Z,100650.78
2022-10-15T18:37:07.539Z,100642.06
2022-10-15T18:39:35.447Z,100648.16
2022-10-15T18:42:03.277Z,100643.72
2022-10-15T18:44:32.316Z,100636.78
2022-10-15T18:47:00.187Z,100629.63
2022-10-15T18:49:28.055Z,100639.16
2022-10-15T18:51:56.157Z,100640.94
2022-10-15T18:54:25.422Z,100638.31
2022-10-15T18:56:53.888Z,100645.41
2022-10-15T18:59:21.834Z,100647.06
2022-10-15T19:01:50.874Z,100642.63
2022-10-15T19:04:20.479Z,100640.00
2022-10-15T19:06:49.828Z,100640.94
2022-10-15T19:09:19.544Z,100632.38
2022-10-15T19:11:50.588Z,100634.16
2022-10-15T19:14:19.298Z,100633.31
2022-10-15T19:16:48.464Z,100637.63
2022-10-15T19:19:19.779Z,100637.63
2022-10-15T19:21:49.859Z,100636.66
2022-10-15T19:24:19.592Z,100627.94
2022-10-15T19:26:49.541Z,100620.06
2022-10-15T19:29:17.932Z,100625.19
2022-10-15T19:31:47.590Z,100620.91
2022-10-15T19:34:15.923Z,100617.28
2022-10-15T19:36:46.469Z,100617.19
2022-10-15T19:39:16.243Z,100612.78
2022-10-15T19:41:45.866Z,100611.22
2022-10-15T19:44:17.466Z,100620.91
2022-10-15T19:46:46.669Z,100620.91
2022-10-15T19:49:15.172Z,100618.97
2022-10-15T19:51:43.235Z,100616.63
2022-10-15T19:54:13.573Z,100619.81
2022-10-15T19:56:41.487Z,100624.94
2022-10-15T19:59:11.631Z,100620.53
2022-10-15T20:01:40.989Z,100613.63
2022-10-15T20:04:08.860Z,100614.44
2022-10-15T20:06:38.984Z,100620.41
2022-10-15T20:09:07.643Z,100608.25
2022-10-15T20:11:35.656Z,100612.66
2022-10-15T20:14:03.850Z,100614.31
2022-10-15T20:16:33.481Z,100620.41
2022-10-15T20:19:03.780Z,100622.19
2022-10-15T20:21:32.186Z,100630.94
2022-10-15T20:24:04.175Z,100622.19
2022-10-15T20:26:32.552Z,100630.94
2022-10-15T20:29:00.829Z,100630.78
2022-10-15T20:31:32.830Z,100634.28
2022-10-15T20:34:01.983Z,100628.03
2022-10-15T20:36:31.198Z,100624.44
2022-10-15T20:39:00.757Z,100625.28
2022-10-15T20:41:28.862Z,100620.84
2022-10-15T20:43:57.582Z,100608.66
2022-10-15T20:46:28.564Z,100611.28
2022-10-15T20:48:58.566Z,100613.91
2022-10-15T20:51:28.634Z,100614.75
2022-10-15T20:54:00.158Z,100612.13
2022-10-15T20:56:28.129Z,100609.63
2022-10-15T20:58:55.963Z,100610.47
2022-10-15T21:01:23.873Z,100606.16
2022-10-15T21:03:51.852Z,100607.97
2022-10-15T21:06:20.679Z,100607.41
2022-10-15T21:08:48.588Z,100609.31
2022-10-15T21:11:17.880Z,100614.56
2022-10-15T21:13:45.783Z,100616.47
2022-10-15T21:16:13.734Z,100630.56
2022-10-15T21:18:41.686Z,100628.78
2022-10-15T21:21:12.099Z,100626.16
2022-10-15T21:23:40.435Z,100622.94
2022-10-15T21:26:10.124Z,100625.31
2022-10-15T21:28:39.666Z,100619.13
2022-10-15T21:31:08.521Z,100619.13
2022-10-15T21:33:37.054Z,100610.25
2022-10-15T21:36:12.657Z,100612.78
2022-10-15T21:38:41.229Z,100614.44
2022-10-15T21:41:09.442Z,100619.69
2022-10-15T21:43:37.433Z,100611.00
2022-10-15T21:46:08.637Z,100613.63
2022-10-15T21:48:37.651Z,100616.25
2022-10-15T21:51:06.408Z,100613.84
2022-10-15T21:53:35.328Z,100611.00
2022-10-15T21:56:05.660Z,100608.25
2022-10-15T21:58:33.751Z,100605.63
2022-10-15T22:01:13.450Z,100602.97
2022-10-15T22:03:44.176Z,100600.22
2022-10-15T22:06:12.985Z,100601.03
2022-10-15T22:08:40.842Z,100600.09
2022-10-15T22:11:10.625Z,100601.75
2022-10-15T22:13:39.544Z,100593.03
2022-10-15T22:16:10.074Z,100600.09
2022-10-15T22:18:37.808Z,100596.88
2022-10-15T22:21:15.240Z,100600.22
2022-10-15T22:23:44.151Z,100593.03
2022-10-15T22:26:12.259Z,100596.50
2022-10-15T22:28:40.462Z,100591.09
2022-10-15T22:31:12.431Z,100588.34
2022-10-15T22:33:41.732Z,100588.34
2022-10-15T22:36:18.352Z,100592.63
2022-10-15T22:38:48.778Z,100586.41
2022-10-15T22:41:17.023Z,100585.84
2022-10-15T22:43:45.049Z,100580.31
2022-10-15T22:46:14.473Z,100573.38
2022-10-15T22:48:43.548Z,100578.38
2022-10-15T22:51:13.999Z,100573.25
2022-10-15T22:53:41.741Z,100576.16
2022-10-15T22:56:14.050Z,100573.38
2022-10-15T22:58:41.987Z,100577.69
2022-10-15T23:01:15.305Z,100575.88
2022-10-15T23:03:45.125Z,100572.44
2022-10-15T23:06:14.022Z,100567.19
2022-10-15T23:08:42.976Z,100572.31
2022-10-15T23:11:13.835Z,100575.75
2022-10-15T23:13:42.801Z,100572.56
2022-10-15T23:16:15.734Z,100576.72
2022-10-15T23:18:45.096Z,100581.97
2022-10-15T23:21:15.951Z,100574.81
2022-10-15T23:23:45.056Z,100577.44
2022-10-15T23:26:13.744Z,100577.31
2022-10-15T23:28:42.405Z,100575.75
2022-10-15T23:31:17.862Z,100573.84
2022-10-15T23:33:45.920Z,100571.19
2022-10-15T23:36:14.127Z,100569.53
2022-10-15T23:38:42.079Z,100565.81
2022-10-15T23:41:10.536Z,100570.22
2022-10-15T23:43:38.598Z,100560.69
2022-10-15T23:46:06.785Z,100563.06
2022-10-15T23:48:36.035Z,100561.41
2022-10-15T23:51:04.006Z,100557.78
2022-10-15T23:53:33.528Z,100559.56
2022-10-15T23:56:03.801Z,100553.50
2022-10-15T23:58:32.184Z,100556.28
